Weather at Martin State Airport

Public forecast

Using degrees Fahrenheit for public forecast. Weather courtesy of forecast.io.

Current aviation weather report (METAR) for Martin State Airport

Retrieved 2021/04/13 09:45 UTC (23 minutes ago):

KMTN 130945Z 29003KT 10SM SCT022 BKN035 BKN046 10/08 A3001

Aviation forecast (TAF) for Martin State Airport

Forecast is more than 6 hours old.

Retrieved 2021-04-13 00:42 UTC (9 hours ago):

TAF KMTN 122339Z 1300/1324 07007KT 6SM -SHRA BKN015 OVC050 FM130200 03005KT P6SM SCT008 BKN015 FM131700 36008KT P6SM BKN040 FM132300 VRB03KT P6SM SCT200 AMD NOT SKED 1302/1312